createdAt,value
2019-01-25T00:02:01.927Z,1.04
2019-01-25T00:07:04.389Z,0.99
2019-01-25T00:12:06.877Z,1.01
2019-01-25T00:17:09.405Z,0.99
2019-01-25T00:22:11.789Z,0.99
2019-01-25T00:27:14.250Z,0.93
2019-01-25T00:32:16.711Z,0.95
2019-01-25T00:37:19.178Z,0.94
2019-01-25T00:42:21.636Z,0.99
2019-01-25T00:47:24.097Z,0.98
2019-01-25T00:52:26.556Z,0.98
2019-01-25T00:57:29.014Z,1.04
2019-01-25T01:02:31.476Z,0.98
2019-01-25T01:07:33.930Z,1.04
2019-01-25T01:12:36.375Z,1.01
2019-01-25T01:17:38.838Z,0.97
2019-01-25T01:22:41.321Z,0.94
2019-01-25T01:27:43.870Z,0.90
2019-01-25T01:32:46.343Z,0.75
2019-01-25T01:37:48.801Z,0.54
2019-01-25T01:42:51.253Z,0.23
2019-01-25T01:47:53.709Z,0.00
2019-01-25T01:52:56.186Z,-0.12
2019-01-25T01:57:58.648Z,-0.04
2019-01-25T02:03:01.114Z,0.04
2019-01-25T02:08:03.576Z,-0.04
2019-01-25T02:13:06.055Z,-0.08
2019-01-25T02:18:08.512Z,-0.26
2019-01-25T02:23:10.979Z,-0.26
2019-01-25T02:28:13.444Z,-0.15
2019-01-25T02:33:15.906Z,-0.09
2019-01-25T02:38:18.368Z,-0.12
2019-01-25T02:43:20.837Z,-0.09
2019-01-25T02:48:23.302Z,0.01
2019-01-25T02:53:25.741Z,0.05
2019-01-25T02:58:28.190Z,-0.07
2019-01-25T03:03:30.696Z,0.18
2019-01-25T03:08:33.149Z,0.15
2019-01-25T03:13:35.617Z,0.05
2019-01-25T03:18:38.071Z,0.00
2019-01-25T03:23:40.531Z,-0.11
2019-01-25T03:28:42.990Z,-0.01
2019-01-25T03:33:45.448Z,0.05
2019-01-25T03:38:47.913Z,-0.03
2019-01-25T03:43:50.363Z,0.10
2019-01-25T03:48:52.830Z,-0.08
2019-01-25T03:53:55.311Z,0.05
2019-01-25T03:58:57.772Z,-0.15
2019-01-25T04:04:00.243Z,-0.25
2019-01-25T04:09:02.707Z,-0.11
2019-01-25T04:14:05.167Z,0.04
2019-01-25T04:19:07.639Z,0.05
2019-01-25T04:24:10.105Z,0.08
2019-01-25T04:29:12.563Z,0.12
2019-01-25T04:34:15.024Z,0.07
2019-01-25T04:39:17.482Z,0.10
2019-01-25T04:44:19.953Z,0.08
2019-01-25T04:49:22.414Z,0.13
2019-01-25T04:54:24.895Z,0.00
2019-01-25T04:59:27.360Z,0.16
2019-01-25T05:04:29.846Z,0.08
2019-01-25T05:09:32.317Z,-0.09
2019-01-25T05:14:34.827Z,-0.09
2019-01-25T05:19:40.248Z,-0.24
2019-01-25T05:24:42.719Z,-0.28
2019-01-25T05:29:48.144Z,-0.25
2019-01-25T05:34:50.612Z,-0.19
2019-01-25T05:39:53.084Z,-0.34
2019-01-25T05:44:55.567Z,-0.41
2019-01-25T05:49:58.027Z,-0.36
2019-01-25T05:55:00.526Z,-0.18
2019-01-25T06:00:03.001Z,-0.05
2019-01-25T06:05:05.490Z,-0.08
2019-01-25T06:10:07.980Z,-0.12
2019-01-25T06:15:10.457Z,-0.09
2019-01-25T06:20:12.915Z,-0.19
2019-01-25T06:25:15.386Z,-0.14
2019-01-25T06:30:17.858Z,-0.07
2019-01-25T06:35:20.320Z,0.07
2019-01-25T06:40:22.794Z,0.20
2019-01-25T06:45:25.264Z,0.22
2019-01-25T06:50:27.716Z,0.22
2019-01-25T06:55:30.198Z,0.34
2019-01-25T07:00:50.818Z,0.35
2019-01-25T07:05:53.370Z,0.29
2019-01-25T07:10:55.841Z,0.26
2019-01-25T07:15:58.302Z,0.39
2019-01-25T07:21:00.786Z,0.38
2019-01-25T07:26:03.460Z,0.45
2019-01-25T07:31:05.951Z,0.58
2019-01-25T07:36:08.416Z,0.66
2019-01-25T07:41:10.905Z,0.74
2019-01-25T07:46:13.428Z,0.69
2019-01-25T07:51:15.880Z,0.80
2019-01-25T07:56:18.344Z,0.83
2019-01-25T08:01:20.801Z,0.98
2019-01-25T08:06:23.239Z,1.05
2019-01-25T08:11:25.705Z,1.09
2019-01-25T08:16:28.180Z,1.26
2019-01-25T08:21:30.624Z,1.32
2019-01-25T08:26:33.101Z,1.42
2019-01-25T08:31:35.553Z,1.47
2019-01-25T08:36:38.196Z,1.46
2019-01-25T08:41:40.512Z,1.55
2019-01-25T08:46:43.055Z,1.75
2019-01-25T08:51:45.518Z,1.93
2019-01-25T08:56:47.999Z,2.10
2019-01-25T09:01:50.463Z,2.16
2019-01-25T09:06:52.930Z,2.30
2019-01-25T09:11:55.394Z,2.31
2019-01-25T09:16:57.856Z,2.38
2019-01-25T09:22:00.349Z,2.54
2019-01-25T09:27:02.801Z,2.55
2019-01-25T09:32:05.283Z,2.45
2019-01-25T09:37:07.790Z,2.62
2019-01-25T09:42:10.261Z,2.84
2019-01-25T09:47:12.728Z,3.14
2019-01-25T09:52:15.220Z,3.37
2019-01-25T09:57:17.702Z,3.41
2019-01-25T10:02:20.190Z,3.45
2019-01-25T10:07:22.718Z,3.62
2019-01-25T10:12:25.208Z,3.92
2019-01-25T10:17:27.749Z,4.25
2019-01-25T10:22:30.244Z,4.34
2019-01-25T10:27:32.707Z,4.80
2019-01-25T10:32:35.174Z,4.92
2019-01-25T10:37:37.623Z,4.60
2019-01-25T10:42:45.496Z,4.54
2019-01-25T10:47:42.557Z,4.27
2019-01-25T10:52:45.015Z,4.87
2019-01-25T10:57:47.495Z,4.56
2019-01-25T11:02:57.633Z,4.95
2019-01-25T11:07:52.428Z,5.47
2019-01-25T11:13:00.731Z,5.80
2019-01-25T11:17:57.362Z,5.76
2019-01-25T11:22:59.813Z,5.43
2019-01-25T11:28:02.277Z,5.01
2019-01-25T11:33:04.772Z,4.67
2019-01-25T11:38:07.244Z,4.75
2019-01-25T11:43:09.723Z,4.64
2019-01-25T11:48:12.190Z,5.25
2019-01-25T11:53:14.660Z,5.62
2019-01-25T11:58:17.131Z,5.13
2019-01-25T12:03:19.609Z,4.93
2019-01-25T12:08:22.098Z,5.02
2019-01-25T12:13:24.562Z,5.15
2019-01-25T12:18:27.072Z,5.22
2019-01-25T12:23:29.504Z,5.16
2019-01-25T12:28:31.956Z,5.25
2019-01-25T12:33:34.404Z,5.45
2019-01-25T12:38:36.864Z,5.76
2019-01-25T12:43:39.321Z,5.99
2019-01-25T12:48:41.788Z,5.70
2019-01-25T12:53:44.273Z,5.62
2019-01-25T12:58:46.771Z,5.72
2019-01-25T13:03:49.238Z,5.93
2019-01-25T13:08:51.725Z,5.54
2019-01-25T13:13:54.173Z,5.53
2019-01-25T13:18:56.646Z,5.68
2019-01-25T13:23:59.125Z,5.81
2019-01-25T13:29:01.592Z,5.54
2019-01-25T13:34:04.095Z,5.35
2019-01-25T13:39:06.528Z,5.21
2019-01-25T13:44:08.983Z,5.04
2019-01-25T13:49:11.469Z,4.84
2019-01-25T13:54:13.934Z,4.99
2019-01-25T13:59:16.426Z,4.82
2019-01-25T14:04:18.877Z,4.71
2019-01-25T14:09:21.403Z,4.50
2019-01-25T14:14:23.876Z,4.23
2019-01-25T14:19:26.353Z,4.08
2019-01-25T14:24:28.876Z,3.99
2019-01-25T14:29:31.352Z,3.87
2019-01-25T14:34:33.827Z,3.70
2019-01-25T14:39:36.274Z,3.71
2019-01-25T14:44:38.747Z,3.64
2019-01-25T14:49:41.202Z,3.68
2019-01-25T14:54:43.675Z,3.60
2019-01-25T14:59:46.226Z,3.53
2019-01-25T15:04:48.696Z,3.47
2019-01-25T15:09:51.172Z,3.42
2019-01-25T15:14:53.709Z,3.34
2019-01-25T15:19:56.169Z,3.27
2019-01-25T15:24:58.629Z,3.29
2019-01-25T15:30:01.104Z,3.17
2019-01-25T15:35:03.609Z,3.10
2019-01-25T15:40:06.091Z,2.96
2019-01-25T15:45:11.513Z,2.95
2019-01-25T15:50:22.958Z,2.92
2019-01-25T15:55:25.413Z,2.87
2019-01-25T16:00:27.904Z,2.90
2019-01-25T16:05:30.366Z,2.82
2019-01-25T16:10:32.833Z,2.78
2019-01-25T16:15:35.303Z,2.73
2019-01-25T16:20:37.779Z,2.64
2019-01-25T16:25:40.259Z,2.66
2019-01-25T16:30:42.791Z,2.64
2019-01-25T16:35:45.262Z,2.66
2019-01-25T16:40:47.862Z,2.72
2019-01-25T16:45:50.354Z,2.66
2019-01-25T16:50:52.855Z,2.72
2019-01-25T16:55:55.326Z,2.71
2019-01-25T17:00:57.835Z,2.77
2019-01-25T17:06:00.312Z,2.72
2019-01-25T17:11:02.806Z,2.70
2019-01-25T17:16:05.275Z,2.77
2019-01-25T17:21:07.778Z,2.77
2019-01-25T17:26:10.300Z,2.71
2019-01-25T17:31:12.836Z,2.69
2019-01-25T17:36:15.326Z,2.68
2019-01-25T17:41:17.865Z,2.67
2019-01-25T17:46:20.351Z,2.69
2019-01-25T17:51:22.921Z,2.69
2019-01-25T17:56:25.401Z,2.73
2019-01-25T18:01:27.884Z,2.79
2019-01-25T18:06:30.394Z,2.81
2019-01-25T18:11:32.865Z,2.85
2019-01-25T18:16:35.332Z,2.79
2019-01-25T18:21:37.785Z,2.77
2019-01-25T18:26:40.254Z,2.79
2019-01-25T18:31:43.057Z,2.76
2019-01-25T18:36:45.533Z,2.81
2019-01-25T18:41:48.019Z,2.74
2019-01-25T18:46:50.503Z,2.78
2019-01-25T18:51:53.001Z,2.76
2019-01-25T18:56:55.476Z,2.78
2019-01-25T19:01:57.978Z,2.77
2019-01-25T19:07:00.438Z,2.71
2019-01-25T19:12:02.920Z,2.81
2019-01-25T19:17:05.381Z,2.88
2019-01-25T19:22:07.878Z,2.85
2019-01-25T19:27:12.109Z,2.89
2019-01-25T19:32:12.811Z,2.92
2019-01-25T19:37:15.306Z,2.88
2019-01-25T19:42:19.017Z,2.93
2019-01-25T19:47:21.498Z,2.99
2019-01-25T19:52:23.978Z,3.06
2019-01-25T19:57:26.467Z,3.05
2019-01-25T20:02:28.939Z,3.05
2019-01-25T20:07:31.402Z,3.03
2019-01-25T20:12:33.887Z,2.98
2019-01-25T20:17:36.379Z,3.06
2019-01-25T20:22:38.875Z,3.06
2019-01-25T20:27:41.315Z,3.10
2019-01-25T20:32:43.780Z,3.11
2019-01-25T20:37:46.259Z,3.09
2019-01-25T20:42:48.718Z,3.10
2019-01-25T20:47:51.199Z,3.10
2019-01-25T20:52:53.654Z,3.02
2019-01-25T20:57:56.125Z,3.01
2019-01-25T21:02:58.594Z,2.95
2019-01-25T21:08:01.044Z,2.91
2019-01-25T21:13:05.308Z,2.92
2019-01-25T21:18:05.975Z,2.85
2019-01-25T21:23:08.480Z,2.89
2019-01-25T21:28:10.987Z,2.82
2019-01-25T21:33:13.804Z,2.80
2019-01-25T21:38:16.270Z,2.73
2019-01-25T21:43:18.750Z,2.74
2019-01-25T21:48:21.232Z,2.78
2019-01-25T21:53:23.731Z,2.70
2019-01-25T21:58:26.220Z,2.70
2019-01-25T22:03:28.676Z,2.64
2019-01-25T22:08:31.141Z,2.65
2019-01-25T22:13:33.834Z,2.54
2019-01-25T22:18:36.295Z,2.49
2019-01-25T22:23:38.799Z,2.57
2019-01-25T22:28:41.271Z,2.54
2019-01-25T22:33:43.745Z,2.56
2019-01-25T22:38:46.394Z,2.70
2019-01-25T22:43:48.906Z,2.74
2019-01-25T22:48:51.372Z,2.77
2019-01-25T22:53:53.928Z,2.77
2019-01-25T22:58:56.369Z,2.81
2019-01-25T23:04:04.842Z,2.90
2019-01-25T23:09:16.359Z,2.90
2019-01-25T23:14:18.845Z,2.91
2019-01-25T23:19:21.294Z,2.88
2019-01-25T23:24:23.750Z,2.90
2019-01-25T23:29:26.211Z,2.79
2019-01-25T23:34:28.705Z,2.79
2019-01-25T23:39:31.201Z,2.75
2019-01-25T23:44:33.691Z,2.62
2019-01-25T23:49:36.163Z,2.51
2019-01-25T23:54:38.624Z,2.54
2019-01-25T23:59:41.095Z,2.50
